Historique des stations

Station météo de Tour-en-Sologne

Altitude de la station : 97 m







Données météorologiques pour le 21/09/2021
Date
Heure
Températures Humidité Point de rosée Vitesse
du vent
Direction Rafales Windchill Pression Pluviométrie
Cumul
Date
Heure
Températures Humidité Point de rosée Vitesse
du vent
Direction Rafales Windchill Pression Pluviométrie
Cumul
21/09/2021 22:2910.6 °C97 %10.0 °C-NNE19 km/h10.6 1029 hPa-
21/09/2021 22:1410.7 °C96 %10.0 °C-NNE19 km/h10.6 1029 hPa-
21/09/2021 21:5910.9 °C96 %10.6 °C-NNE19 km/h11.1 1029 hPa-
21/09/2021 21:4411.1 °C95 %10.6 °C-NNE19 km/h11.1 1029 hPa-
21/09/2021 21:2911.3 °C94 %10.6 °C-NNE19 km/h11.1 1029 hPa-
21/09/2021 21:1411.7 °C93 %10.6 °C-NNE19 km/h11.7 1029 hPa-
21/09/2021 20:5812.1 °C91 %10.6 °C-NNE19 km/h12.2 1029 hPa-
21/09/2021 20:4412.6 °C90 %11.1 °C-NNE19 km/h12.8 1029 hPa-
21/09/2021 20:2913.1 °C88 %11.1 °C2 km/hNNE19 km/h13.3 1029 hPa-
21/09/2021 20:1413.4 °C86 %11.1 °C-NNE19 km/h13.3 1029 hPa-
21/09/2021 19:5913.9 °C85 %11.7 °C3 km/hNNE19 km/h13.9 1029 hPa-
21/09/2021 19:4414.4 °C84 %11.7 °C2 km/hNNE19 km/h14.4 1029 hPa-
21/09/2021 19:2914.9 °C82 %11.7 °C2 km/hNNE19 km/h15.0 1029 hPa-
21/09/2021 19:1415.4 °C80 %12.2 °C5 km/hNE19 km/h15.6 1028 hPa-
21/09/2021 18:5915.8 °C78 %12.2 °C3 km/hNNE19 km/h15.6 1028 hPa-
21/09/2021 18:4416.2 °C77 %12.2 °C8 km/hN19 km/h16.1 1028 hPa-
21/09/2021 18:2916.4 °C76 %12.2 °C6 km/hN19 km/h16.7 1028 hPa-
21/09/2021 18:1416.4 °C76 %12.2 °C6 km/hENE19 km/h16.7 1028 hPa-
21/09/2021 17:5916.6 °C74 %11.7 °C5 km/hNNO19 km/h16.7 1029 hPa-
21/09/2021 17:4416.7 °C74 %12.2 °C13 km/hNNO19 km/h16.1 1028 hPa-
21/09/2021 17:2916.8 °C74 %12.2 °C2 km/hNNE19 km/h16.7 1028 hPa-
21/09/2021 17:1416.8 °C76 %12.8 °C3 km/hNNO19 km/h16.7 1028 hPa-
21/09/2021 16:5916.7 °C76 %12.2 °C6 km/hNNO19 km/h16.7 1029 hPa-
21/09/2021 16:4416.6 °C74 %12.2 °C6 km/hN19 km/h16.7 1029 hPa-
21/09/2021 16:2916.6 °C73 %11.7 °C6 km/hNNE19 km/h16.7 1029 hPa-
21/09/2021 16:1416.7 °C73 %11.7 °C8 km/hNNE19 km/h16.7 1029 hPa-
21/09/2021 15:5916.9 °C73 %12.2 °C6 km/hE19 km/h16.7 1029 hPa-
21/09/2021 15:4417.0 °C73 %12.2 °C8 km/hNE19 km/h17.2 1029 hPa-
21/09/2021 15:2916.9 °C73 %12.2 °C6 km/hENE19 km/h17.2 1028 hPa-
21/09/2021 15:1417.1 °C73 %12.2 °C10 km/hNE19 km/h17.2 1029 hPa-
21/09/2021 14:5916.9 °C75 %12.2 °C8 km/hNE19 km/h16.7 1029 hPa-
21/09/2021 14:4416.7 °C74 %12.2 °C8 km/hENE19 km/h16.7 1029 hPa-
21/09/2021 14:2916.7 °C73 %11.7 °C-ENE19 km/h16.7 1029 hPa-
21/09/2021 14:1416.4 °C76 %12.2 °C6 km/hNNO19 km/h16.7 1029 hPa-
21/09/2021 13:5916.2 °C77 %12.2 °C6 km/hN19 km/h16.1 1029 hPa-
21/09/2021 13:4416.4 °C78 %12.8 °C5 km/hNO19 km/h16.7 1029 hPa-
21/09/2021 13:2916.9 °C75 %12.2 °C8 km/hNO19 km/h16.7 1029 hPa-
21/09/2021 13:1416.8 °C75 %12.2 °C13 km/hNNE19 km/h16.1 1029 hPa-
21/09/2021 13:0016.3 °C80 %12.8 °C2 km/hENE19 km/h16.1 1029 hPa-
21/09/2021 12:4515.9 °C78 %12.2 °C11 km/hNNO19 km/h15.6 1029 hPa-
21/09/2021 12:3016.4 °C79 %12.8 °C8 km/hN19 km/h16.7 1029 hPa-
21/09/2021 12:1516.3 °C77 %12.2 °C10 km/hNE19 km/h16.1 1029 hPa-
21/09/2021 12:0016.1 °C79 %12.2 °C13 km/hNNE19 km/h15.6 1029 hPa-
21/09/2021 11:4515.7 °C83 %12.8 °C13 km/hN19 km/h14.4 1029 hPa-
21/09/2021 11:2915.1 °C86 %12.8 °C6 km/hN19 km/h15.0 1029 hPa-
21/09/2021 11:1414.3 °C88 %12.2 °C6 km/hNNO19 km/h14.4 1029 hPa-
21/09/2021 10:5913.7 °C91 %12.2 °C5 km/hN19 km/h13.9 1029 hPa-
21/09/2021 10:4413.2 °C92 %12.2 °C3 km/hENE19 km/h13.3 1029 hPa-
21/09/2021 10:2912.6 °C94 %11.7 °C6 km/hNNE19 km/h12.8 1029 hPa-
21/09/2021 10:1412.2 °C95 %11.7 °C6 km/hNNE19 km/h12.2 1028 hPa-
21/09/2021 09:5911.8 °C96 %11.1 °C3 km/hNNE19 km/h11.7 1028 hPa-
21/09/2021 09:4411.7 °C97 %11.1 °C6 km/hNE19 km/h11.7 1028 hPa-
21/09/2021 09:2911.4 °C97 %11.1 °C2 km/hN19 km/h11.7 1028 hPa-
21/09/2021 09:1411.2 °C98 %11.1 °C2 km/hE19 km/h11.1 1028 hPa-
21/09/2021 08:5911.1 °C98 %10.6 °C3 km/hNE19 km/h11.1 1028 hPa-
21/09/2021 08:4410.9 °C98 %10.6 °C10 km/hN19 km/h10.0 1027 hPa-
21/09/2021 08:2911.1 °C98 %10.6 °C8 km/hN19 km/h10.0 1027 hPa-
21/09/2021 08:1411.2 °C97 %10.6 °C2 km/hNE19 km/h11.1 1027 hPa-
21/09/2021 07:5911.5 °C97 %11.1 °C2 km/hNNO19 km/h11.7 1027 hPa-
21/09/2021 07:4511.8 °C97 %11.7 °C-NNO19 km/h11.7 1027 hPa-
21/09/2021 07:3012.2 °C97 %11.7 °C8 km/hNO19 km/h11.7 1027 hPa-
21/09/2021 07:1512.6 °C97 %12.2 °C8 km/hNE19 km/h12.2 1027 hPa-
21/09/2021 07:0012.9 °C97 %12.8 °C10 km/hNNO19 km/h11.7 1026 hPa-
21/09/2021 06:4513.2 °C98 %12.8 °C3 km/hNNO19 km/h13.3 1026 hPa-
21/09/2021 06:3013.3 °C97 %12.8 °C3 km/hNNO19 km/h13.3 1026 hPa-
21/09/2021 06:1513.5 °C98 %13.3 °C8 km/hN18 km/h12.8 1026 hPa-
21/09/2021 05:5913.7 °C98 %13.3 °C6 km/hN16 km/h13.9 1026 hPa-
21/09/2021 05:4413.8 °C98 %13.3 °C11 km/hN16 km/h12.8 1026 hPa-
21/09/2021 05:2913.9 °C99 %13.9 °C3 km/hN16 km/h13.9 1026 hPa-
21/09/2021 05:1414.0 °C99 %13.9 °C10 km/hNNO13 km/h13.3 1026 hPa-
21/09/2021 04:5914.1 °C99 %13.9 °C2 km/hN13 km/h13.9 1026 hPa-
21/09/2021 04:4414.1 °C99 %13.9 °C5 km/hN13 km/h13.9 1026 hPa-
21/09/2021 04:2914.3 °C99 %14.4 °C8 km/hNNO13 km/h14.4 1026 hPa-
21/09/2021 04:1414.4 °C99 %14.4 °C3 km/hNNE13 km/h14.4 1026 hPa-
21/09/2021 03:5914.4 °C100 %14.4 °C11 km/hNNE13 km/h13.3 1026 hPa-
21/09/2021 03:4414.5 °C100 %14.4 °C10 km/hNNO13 km/h13.9 1026 hPa-
21/09/2021 03:2914.6 °C100 %14.4 °C3 km/hNNO13 km/h14.4 1026 hPa-
21/09/2021 03:1414.6 °C100 %14.4 °C3 km/hN13 km/h14.4 1026 hPa-
21/09/2021 02:5914.5 °C100 %14.4 °C3 km/hNNO13 km/h14.4 1026 hPa-
21/09/2021 02:4414.5 °C100 %14.4 °C8 km/hNNO13 km/h14.4 1026 hPa-
21/09/2021 02:2914.4 °C100 %14.4 °C2 km/hNO13 km/h14.4 1026 hPa-
21/09/2021 02:1414.3 °C100 %14.4 °C5 km/hN10 km/h14.4 1026 hPa-
21/09/2021 01:5913.9 °C100 %13.9 °C6 km/hNO8 km/h13.9 1026 hPa-
21/09/2021 01:4413.9 °C100 %13.9 °C-NO8 km/h13.9 1026 hPa-
21/09/2021 01:2914.1 °C100 %13.9 °C-NO8 km/h13.9 1025 hPa-
21/09/2021 01:1414.1 °C100 %13.9 °C-NO8 km/h13.9 1025 hPa-
21/09/2021 00:5814.1 °C100 %13.9 °C-NO8 km/h13.9 1025 hPa-
21/09/2021 00:4414.1 °C100 %13.9 °C2 km/hNO8 km/h13.9 1025 hPa-
21/09/2021 00:2914.2 °C100 %14.4 °C-NO8 km/h14.4 1025 hPa-
21/09/2021 00:1414.2 °C100 %14.4 °C-NO8 km/h14.4 1025 hPa-


Minima :

Température : 10.6 °C
Humidité : 73 %
Point de rosée : 10.0 °C
Vent moyen : 2 km/h
Windchill : 10.0
Pression atm. : 1025 hPa
Maxima :

Température : 17.1 °C
Humidité : 100 %
Point de rosée : 14.4 °C
Vent moyen : 13 km/h
Windchill : 17.2
Pression atm. : 1029 hPa
Rafales max : 19 km/h
Cumul de pluie sur 24H : 0 mm

Tour-en-Sologne est une commune du département Loir-et-Cher (41).
La station météorologique du réseau de l'association la plus proche de Tour-en-Sologne est celle de Chailles



Icône Facebook Association Météo Centre Icône Twitter Association Météo Centre Icône Chaîne Youtube Association Météo Centre Icône contact Association Météo Centre Icône Insta Association Météo Centre